createdAt,value
2023-01-19T00:00:39.984Z,97477.77
2023-01-19T00:03:15.830Z,97479.42
2023-01-19T00:05:44.222Z,97477.12
2023-01-19T00:08:17.685Z,97486.34
2023-01-19T00:10:49.491Z,97498.02
2023-01-19T03:29:00.566Z,97410.02
2023-01-19T06:41:39.761Z,97257.58
2023-01-19T07:22:14.657Z,97273.56
2023-01-19T07:24:43.727Z,97282.99
2023-01-19T07:27:16.974Z,97278.81
2023-01-19T07:29:50.534Z,97267.27
2023-01-19T07:32:17.805Z,97264.25
2023-01-19T07:34:46.650Z,97273.07
2023-01-19T07:37:14.891Z,97259.11
2023-01-19T07:39:42.168Z,97261.33
2023-01-19T07:42:09.414Z,97268.91
2023-01-19T07:44:37.436Z,97266.68
2023-01-19T07:47:08.018Z,97276.70
2023-01-19T07:49:38.143Z,97280.17
2023-01-19T07:52:06.307Z,97261.10
2023-01-19T07:54:33.738Z,97268.04
2023-01-19T07:57:04.568Z,97269.09
2023-01-19T07:59:32.547Z,97270.66
2023-01-19T08:01:59.932Z,97282.73
2023-01-19T08:04:27.807Z,97279.13
2023-01-19T08:06:57.171Z,97281.70
2023-01-19T08:09:27.729Z,97287.16
2023-01-19T08:11:59.930Z,97274.57
2023-01-19T08:14:29.957Z,97282.55
2023-01-19T08:17:04.186Z,97301.55
2023-01-19T08:19:31.308Z,97284.31
2023-01-19T08:22:22.715Z,97278.95
2023-01-19T08:24:56.597Z,97282.27
2023-01-19T08:27:23.852Z,97277.42
2023-01-19T08:29:52.400Z,97280.77
2023-01-19T08:32:28.654Z,97270.79
2023-01-19T08:34:57.645Z,97262.67
2023-01-19T08:37:27.185Z,97260.02
2023-01-19T08:39:55.429Z,97262.71
2023-01-19T08:42:22.814Z,97266.61
2023-01-19T08:44:58.020Z,97266.15
2023-01-19T08:47:25.962Z,97263.02
2023-01-19T08:49:53.401Z,97270.55
2023-01-19T08:52:20.649Z,97256.54
2023-01-19T08:54:53.032Z,97270.79
2023-01-19T08:57:21.354Z,97259.90
2023-01-19T08:59:48.839Z,97256.61
2023-01-19T09:02:16.072Z,97281.23
2023-01-19T09:04:43.351Z,97258.16
2023-01-19T09:14:45.156Z,97247.23
2023-01-19T09:17:14.762Z,97239.66
2023-01-19T09:19:44.717Z,97236.63
2023-01-19T09:22:34.163Z,97245.73
2023-01-19T09:25:04.103Z,97245.40
2023-01-19T09:33:51.839Z,97245.13
2023-01-19T09:36:19.627Z,97246.20
2023-01-19T09:38:47.068Z,97244.91
2023-01-19T09:41:21.637Z,97247.17
2023-01-19T09:43:54.760Z,97252.52
2023-01-19T09:46:42.804Z,97245.19
2023-01-19T09:49:18.899Z,97231.66
2023-01-19T09:51:50.386Z,97234.52
2023-01-19T09:54:19.826Z,97234.31
2023-01-19T09:56:50.687Z,97222.35
2023-01-19T09:59:33.792Z,97213.58
2023-01-19T10:02:04.034Z,97194.88
2023-01-19T10:04:49.447Z,97193.23
2023-01-19T10:07:31.821Z,97199.41
2023-01-19T10:10:03.465Z,97176.94
2023-01-19T10:13:35.788Z,97165.44
2023-01-19T10:16:41.736Z,97170.13
2023-01-19T10:19:21.919Z,97164.27
2023-01-19T10:21:50.450Z,97154.48
2023-01-19T10:24:24.758Z,97150.55
2023-01-19T10:26:54.811Z,97142.78
2023-01-19T10:29:23.032Z,97146.63
2023-01-19T10:31:52.846Z,97142.52
2023-01-19T10:34:23.349Z,97147.98
2023-01-19T10:37:24.703Z,97160.25
2023-01-19T10:39:57.697Z,97186.61
2023-01-19T10:42:28.666Z,97188.72
2023-01-19T10:44:55.812Z,97189.80
2023-01-19T10:47:33.828Z,97196.02
2023-01-19T10:50:01.050Z,97201.80
2023-01-19T10:52:39.392Z,97206.48
2023-01-19T10:55:08.903Z,97199.34
2023-01-19T10:57:39.851Z,97195.64
2023-01-19T11:00:34.140Z,97187.31
2023-01-19T11:03:03.508Z,97191.29
2023-01-19T11:05:33.519Z,97182.10
2023-01-19T11:08:00.754Z,97173.60
2023-01-19T11:10:29.444Z,97176.61
2023-01-19T11:13:12.996Z,97175.23
2023-01-19T11:16:05.522Z,97173.19
2023-01-19T11:18:35.126Z,97161.12
2023-01-19T11:21:07.589Z,97159.73
2023-01-19T11:23:44.379Z,97150.52
2023-01-19T11:26:16.696Z,97136.43
2023-01-19T11:28:48.109Z,97153.40
2023-01-19T11:31:40.300Z,97163.12
2023-01-19T11:34:34.601Z,97163.21
2023-01-19T11:37:21.470Z,97171.30
2023-01-19T11:39:50.615Z,97141.51
2023-01-19T11:42:18.180Z,97137.88
2023-01-19T11:44:52.698Z,97132.30
2023-01-19T11:47:49.865Z,97129.27
2023-01-19T11:50:35.977Z,97136.45
2023-01-19T11:53:18.906Z,97135.48
2023-01-19T11:56:09.387Z,97133.73
2023-01-19T11:58:41.891Z,97136.62
2023-01-19T12:01:50.032Z,97140.39
2023-01-19T12:04:22.478Z,97144.06
2023-01-19T12:06:54.638Z,97147.21
2023-01-19T12:09:31.348Z,97148.64
2023-01-19T12:12:13.156Z,97163.48
2023-01-19T12:14:44.197Z,97176.71
2023-01-19T12:17:25.110Z,97187.52
2023-01-19T12:20:49.008Z,97182.27
2023-01-19T12:23:46.733Z,97171.16
2023-01-19T12:26:29.344Z,97175.47
2023-01-19T12:29:18.919Z,97179.57
2023-01-19T12:31:50.471Z,97175.52
2023-01-19T12:34:31.613Z,97177.95
2023-01-19T12:37:06.795Z,97177.48
2023-01-19T12:39:39.585Z,97178.14
2023-01-19T12:42:15.025Z,97184.27
2023-01-19T12:44:42.678Z,97190.11
2023-01-19T12:47:16.047Z,97192.38
2023-01-19T12:49:47.813Z,97190.38
2023-01-19T12:52:27.070Z,97186.83
2023-01-19T12:55:14.454Z,97190.53
2023-01-19T12:57:55.474Z,97195.25
2023-01-19T13:00:23.377Z,97198.79
2023-01-19T13:02:54.368Z,97204.31
2023-01-19T13:05:32.645Z,97197.83
2023-01-19T13:08:17.722Z,97189.83
2023-01-19T13:11:21.250Z,97194.60
2023-01-19T13:14:36.968Z,97192.06
2023-01-19T13:17:25.435Z,97190.76
2023-01-19T13:19:59.202Z,97178.80
2023-01-19T13:23:15.519Z,97180.41
2023-01-19T13:25:48.017Z,97187.75
2023-01-19T13:28:19.734Z,97185.60
2023-01-19T13:30:54.522Z,97190.21
2023-01-19T13:33:24.480Z,97193.60
2023-01-19T13:35:55.515Z,97192.52
2023-01-19T13:38:25.504Z,97183.91
2023-01-19T13:40:55.845Z,97179.89
2023-01-19T13:43:29.098Z,97185.47
2023-01-19T13:45:56.438Z,97198.36
2023-01-19T13:48:24.534Z,97207.48
2023-01-19T13:51:04.360Z,97212.48
2023-01-19T13:53:35.637Z,97216.20
2023-01-19T13:56:22.383Z,97219.33
2023-01-19T13:59:19.000Z,97222.50
2023-01-19T14:01:47.059Z,97224.34
2023-01-19T14:04:28.467Z,97231.23
2023-01-19T14:07:00.514Z,97233.39
2023-01-19T14:09:30.641Z,97231.07
2023-01-19T14:12:41.610Z,97232.17
2023-01-19T14:16:35.745Z,97229.31
2023-01-19T14:28:40.317Z,97231.00
2023-01-19T14:40:10.875Z,97236.16
2023-01-19T15:00:50.440Z,97237.55
2023-01-19T20:19:25.108Z,97321.89
2023-01-19T20:35:28.661Z,97346.00
2023-01-19T21:00:55.474Z,97385.52
2023-01-19T21:22:27.136Z,97423.17
2023-01-19T21:24:54.168Z,97427.95
2023-01-19T21:27:24.092Z,97434.56
2023-01-19T21:29:51.334Z,97435.90
2023-01-19T21:32:18.331Z,97446.77
2023-01-19T21:42:47.399Z,97448.98
2023-01-19T21:45:14.680Z,97440.10
2023-01-19T21:47:41.981Z,97442.04
2023-01-19T21:50:10.001Z,97440.83
2023-01-19T21:52:37.153Z,97445.65
2023-01-19T21:55:10.839Z,97446.83
2023-01-19T21:57:38.256Z,97439.45
2023-01-19T22:00:10.315Z,97436.16
2023-01-19T22:02:39.146Z,97431.88
2023-01-19T22:05:07.136Z,97426.97
2023-01-19T22:07:34.287Z,97416.88
2023-01-19T22:10:01.170Z,97413.98
2023-01-19T22:12:28.286Z,97406.06
2023-01-19T22:14:55.153Z,97406.87
2023-01-19T22:17:22.229Z,97405.04
2023-01-19T22:19:49.349Z,97418.40
2023-01-19T22:22:16.462Z,97425.80
2023-01-19T22:32:28.194Z,97427.98
2023-01-19T22:34:55.193Z,97445.31
2023-01-19T22:45:42.876Z,97439.84
2023-01-19T22:48:09.796Z,97443.08
2023-01-19T22:50:36.517Z,97443.71
2023-01-19T22:53:03.249Z,97434.88
2023-01-19T22:55:30.062Z,97432.80
2023-01-19T22:57:56.844Z,97426.73
2023-01-19T23:00:23.551Z,97421.42
2023-01-19T23:02:50.253Z,97417.06
2023-01-19T23:05:17.322Z,97407.02
2023-01-19T23:07:50.396Z,97407.33
2023-01-19T23:10:17.242Z,97402.67
2023-01-19T23:17:41.053Z,97432.04
2023-01-19T23:20:32.944Z,97443.62
